Darlington, WI

11:15 AM CDT en Agosto 30, 2014 (GMT -0500)
KWIMINER1 | Change Station
CLOSE
Current Station
Estación meteorológica personal
Location: Mineral Point, WI
Altura: 1066 ft
Estaciones meteorológicas cercanas

Alt 1066 ft 42.85 °N, 90.18 °W | Updated 5 minutes ago

Nublado
Nublado
68.6 ° F
Sensación térmica 68.6 ° F
N
2.0
Viento Variable Viento desde OSO
Gusts 9.0 mph

Hoy
Alta -- | Baja -- ° F
--% Posibilidad de precipitaciones
Ayer
Alta -- | Baja -- ° F
Precip. -- pul
6:23 AM 7:38 PM
Creciente, 23% visible
Presión 29.82 pul
Visibilidad 4.0 Millas
Nubes Nublado 600 ft
Punto de rocío 68 ° F
Humedad 98%
Precipitaciones 0.09 pul
Espesor de la nieve No disponible.
UV 2 de una escala de 12
Polen 5.60 de una escala de 12
Calidad del aire No disponible.
Flu Activity No disponible.
METAR KMRJ 301555Z AUTO 25009KT 4SM BR OVC006 21/20 A2982 RMK AO2

More Conditions Fewer Conditions

Presión 29.82 pul
Visibilidad 4.0 Millas
Nubes Nublado 600 ft
Punto de rocío 68 ° F
Humedad 98%
Precipitaciones 0.09 pul
Espesor de la nieve No disponible.
UV 2 de una escala de 12
Polen 5.60 de una escala de 12
Calidad del aire No disponible.
Flu Activity No disponible.
METAR KMRJ 301555Z AUTO 25009KT 4SM BR OVC006 21/20 A2982 RMK AO2

More Conditions Fewer Conditions

10-Day Weather Forecast

Almanac

Astronomía

Aug. 30, 2014 Salida Puesta
Hora real 6:23 AM CDT 7:38 PM CDT
Crepúsculo civil 5:53 AM CDT 8:07 PM CDT
Crepúsculo náutico 5:18 AM CDT 8:42 PM CDT
Crepúsculo astronómico 4:41 AM CDT 9:18 PM CDT
Luna 11:18 AM CDT 10:04 PM CDT
Horas de luz 14h 13m
Horas de luz
13h 15m
Tomorrow will be 2m 46s shorter.
Creciente, 23% of the Moon is Illuminated
Hoy
Creciente
Sep 2
Cuarto creciente
Sep 8
Luna llena
Sep 15
Cuarto menguante
Sep 24
Nueva

Extremos de hoy

Máximos del estado Bajos del estado

Community

WunderPhotos

Upload Photos

1,748,556 ¡fotos cargadas!

WunderBlogs® & News

Nearby

Grosos de nieve

Estación Profundido Altura
No tenemos constancia de nieve nueva.

Actividad de terremotos

Ciudad Distance Mag. Tiempo y dato
No hay informes recientes de la actividad sísmica.
Magnitud mínima muestra es 2,5.

Temperaturas de aguas costeras

Lugar Temperatura
Sin partes meteorológicos de las estaciones

Estaciones meteorológicas cercanas